createdAt,value
2023-03-20T00:03:41.532Z,100.00
2023-03-20T00:08:45.983Z,100.00
2023-03-20T00:13:47.523Z,100.00
2023-03-20T00:18:49.033Z,100.00
2023-03-20T00:23:50.535Z,100.00
2023-03-20T00:28:52.696Z,100.00
2023-03-20T00:33:57.225Z,100.00
2023-03-20T00:38:58.960Z,100.00
2023-03-20T00:44:03.410Z,100.00
2023-03-20T00:49:05.015Z,100.00
2023-03-20T00:54:17.294Z,100.00
2023-03-20T00:59:22.621Z,100.00
2023-03-20T01:04:25.040Z,100.00
2023-03-20T01:09:26.609Z,100.00
2023-03-20T01:14:28.244Z,100.00
2023-03-20T01:19:29.727Z,100.00
2023-03-20T01:24:31.381Z,100.00
2023-03-20T01:29:33.025Z,100.00
2023-03-20T01:34:34.639Z,100.00
2023-03-20T01:39:37.369Z,100.00
2023-03-20T01:44:39.964Z,100.00
2023-03-20T01:50:22.408Z,100.00
2023-03-20T01:55:26.450Z,100.00
2023-03-20T02:00:34.241Z,100.00
2023-03-20T02:05:38.149Z,100.00
2023-03-20T02:10:40.953Z,100.00
2023-03-20T02:15:56.954Z,100.00
2023-03-20T02:21:22.343Z,100.00
2023-03-20T02:26:46.782Z,100.00
2023-03-20T02:32:09.451Z,100.00
2023-03-20T02:37:23.119Z,100.00
2023-03-20T02:42:40.444Z,100.00
2023-03-20T02:47:52.068Z,100.00
2023-03-20T02:53:27.663Z,100.00
2023-03-20T02:58:39.067Z,100.00
2023-03-20T03:03:48.632Z,100.00
2023-03-20T03:08:56.119Z,100.00
2023-03-20T03:13:58.950Z,100.00
2023-03-20T03:19:07.318Z,100.00
2023-03-20T03:24:40.816Z,100.00
2023-03-20T03:29:49.477Z,100.00
2023-03-20T03:34:52.793Z,100.00
2023-03-20T03:40:43.421Z,100.00
2023-03-20T03:45:53.772Z,100.00
2023-03-20T03:51:00.520Z,100.00
2023-03-20T03:56:08.272Z,100.00
2023-03-20T04:01:12.847Z,100.00
2023-03-20T04:06:17.231Z,100.00
2023-03-20T04:11:21.420Z,100.00
2023-03-20T04:16:26.305Z,100.00
2023-03-20T04:21:29.188Z,100.00
2023-03-20T04:26:30.946Z,100.00
2023-03-20T04:31:33.018Z,100.00
2023-03-20T04:36:45.719Z,100.00
2023-03-20T04:41:49.506Z,100.00
2023-03-20T04:46:51.174Z,100.00
2023-03-20T04:51:53.409Z,100.00
2023-03-20T04:57:07.352Z,100.00
2023-03-20T05:02:09.726Z,100.00
2023-03-20T05:07:12.838Z,100.00
2023-03-20T05:12:24.836Z,100.00
2023-03-20T05:18:01.940Z,100.00
2023-03-20T05:23:23.724Z,100.00
2023-03-20T05:28:40.505Z,100.00
2023-03-20T05:33:55.592Z,100.00
2023-03-20T05:39:11.678Z,100.00
2023-03-20T05:44:36.557Z,100.00
2023-03-20T05:49:54.758Z,100.00
2023-03-20T05:55:02.769Z,100.00
2023-03-20T06:00:23.502Z,100.00
2023-03-20T06:05:45.323Z,100.00
2023-03-20T06:10:50.311Z,100.00
2023-03-20T06:15:52.272Z,100.00
2023-03-20T06:20:57.831Z,100.00
2023-03-20T06:26:02.388Z,100.00
2023-03-20T06:31:06.942Z,100.00
2023-03-20T06:36:09.184Z,100.00
2023-03-20T06:41:13.566Z,100.00
2023-03-20T06:46:21.621Z,100.00
2023-03-20T06:51:23.408Z,100.00
2023-03-20T06:56:27.932Z,100.00
2023-03-20T07:01:29.598Z,100.00
2023-03-20T07:06:37.015Z,100.00
2023-03-20T07:11:38.604Z,100.00
2023-03-20T07:16:40.879Z,100.00
2023-03-20T07:21:43.865Z,100.00
2023-03-20T07:26:47.276Z,100.00
2023-03-20T07:31:49.172Z,100.00
2023-03-20T07:37:00.685Z,100.00
2023-03-20T07:42:03.899Z,100.00
2023-03-20T07:47:24.536Z,100.00
2023-03-20T07:52:26.596Z,100.00
2023-03-20T07:57:28.445Z,100.00
2023-03-20T08:02:31.726Z,100.00
2023-03-20T08:07:33.237Z,99.21
2023-03-20T08:12:34.860Z,97.03
2023-03-20T08:17:36.358Z,98.20
2023-03-20T08:22:37.914Z,97.23
2023-03-20T08:27:39.482Z,96.79
2023-03-20T08:32:43.617Z,95.68
2023-03-20T08:37:45.503Z,93.14
2023-03-20T08:42:46.996Z,90.66
2023-03-20T08:47:51.695Z,88.94
2023-03-20T08:52:53.219Z,89.53
2023-03-20T08:57:57.215Z,87.11
2023-03-20T09:02:58.764Z,85.98
2023-03-20T09:08:00.558Z,85.86
2023-03-20T09:13:09.584Z,85.23
2023-03-20T09:18:17.624Z,81.42
2023-03-20T09:23:19.551Z,83.14
2023-03-20T09:28:21.231Z,81.38
2023-03-20T09:33:22.794Z,78.84
2023-03-20T09:38:24.448Z,76.51
2023-03-20T09:43:52.424Z,78.07
2023-03-20T09:49:13.221Z,78.98
2023-03-20T09:54:24.603Z,79.08
2023-03-20T09:59:27.612Z,81.18
2023-03-20T10:04:29.747Z,79.04
2023-03-20T10:09:32.247Z,77.26
2023-03-20T10:14:42.122Z,77.42
2023-03-20T10:19:50.337Z,76.85
2023-03-20T10:25:16.853Z,77.78
2023-03-20T10:30:37.008Z,74.47
2023-03-20T10:35:51.208Z,75.35
2023-03-20T10:40:55.364Z,73.15
2023-03-20T10:46:13.313Z,71.39
2023-03-20T10:51:19.366Z,70.63
2023-03-20T10:56:44.346Z,71.26
2023-03-20T11:01:46.037Z,71.48
2023-03-20T11:06:56.329Z,71.12
2023-03-20T11:12:00.111Z,69.32
2023-03-20T11:17:04.025Z,68.92
2023-03-20T11:22:26.205Z,66.87
2023-03-20T11:27:30.339Z,66.62
2023-03-20T11:32:39.397Z,65.58
2023-03-20T11:37:46.602Z,63.54
2023-03-20T11:42:57.828Z,64.56
2023-03-20T11:48:03.883Z,64.25
2023-03-20T11:53:26.147Z,62.51
2023-03-20T11:58:29.844Z,61.29
2023-03-20T12:03:42.803Z,62.77
2023-03-20T12:08:50.443Z,61.90
2023-03-20T12:13:54.160Z,61.04
2023-03-20T12:18:59.876Z,60.32
2023-03-20T12:24:26.499Z,61.30
2023-03-20T12:29:50.890Z,60.64
2023-03-20T12:35:16.850Z,60.51
2023-03-20T12:40:27.808Z,60.57
2023-03-20T12:45:44.640Z,60.87
2023-03-20T12:51:00.655Z,60.34
2023-03-20T12:56:21.013Z,59.39
2023-03-20T13:01:53.078Z,59.36
2023-03-20T13:06:59.557Z,58.29
2023-03-20T13:12:38.818Z,58.76
2023-03-20T13:17:50.865Z,57.90
2023-03-20T13:23:09.278Z,58.88
2023-03-20T13:28:45.348Z,56.87
2023-03-20T13:34:21.166Z,56.55
2023-03-20T13:39:28.921Z,57.16
2023-03-20T13:44:33.070Z,57.26
2023-03-20T13:49:42.623Z,57.88
2023-03-20T13:55:22.046Z,55.05
2023-03-20T14:00:52.598Z,56.60
2023-03-20T14:05:54.951Z,56.60
2023-03-20T14:11:32.292Z,56.27
2023-03-20T14:16:34.006Z,56.95
2023-03-20T14:21:36.252Z,55.93
2023-03-20T14:26:41.833Z,55.91
2023-03-20T14:31:45.212Z,56.51
2023-03-20T14:37:05.720Z,56.02
2023-03-20T14:42:19.450Z,55.88
2023-03-20T14:47:48.887Z,56.77
2023-03-20T14:52:55.703Z,57.21
2023-03-20T14:58:02.716Z,56.35
2023-03-20T15:03:10.701Z,56.68
2023-03-20T15:08:24.943Z,56.68
2023-03-20T15:13:27.912Z,57.56
2023-03-20T15:18:30.099Z,57.35
2023-03-20T15:23:31.632Z,57.42
2023-03-20T15:28:37.629Z,57.38
2023-03-20T15:33:42.923Z,57.47
2023-03-20T15:38:46.816Z,57.12
2023-03-20T15:43:48.352Z,57.93
2023-03-20T15:48:50.004Z,57.34
2023-03-20T15:53:51.730Z,56.64
2023-03-20T15:58:56.632Z,56.99
2023-03-20T16:03:59.913Z,57.71
2023-03-20T16:09:13.796Z,58.35
2023-03-20T16:14:25.646Z,58.61
2023-03-20T16:19:29.107Z,59.16
2023-03-20T16:24:36.232Z,59.03
2023-03-20T16:29:43.861Z,59.30
2023-03-20T16:34:51.343Z,59.80
2023-03-20T16:40:05.914Z,60.28
2023-03-20T16:45:19.799Z,60.65
2023-03-20T16:50:23.220Z,61.27
2023-03-20T16:55:29.504Z,61.26
2023-03-20T17:00:41.741Z,61.54
2023-03-20T17:05:49.435Z,61.92
2023-03-20T17:10:57.292Z,62.64
2023-03-20T17:15:59.615Z,63.15
2023-03-20T17:21:01.203Z,63.87
2023-03-20T17:26:02.773Z,64.15
2023-03-20T17:31:05.454Z,64.45
2023-03-20T17:36:39.493Z,65.50
2023-03-20T17:41:40.975Z,65.30
2023-03-20T17:46:56.612Z,65.61
2023-03-20T17:51:59.077Z,65.72
2023-03-20T17:57:01.686Z,66.38
2023-03-20T18:02:03.382Z,66.11
2023-03-20T18:07:04.970Z,66.58
2023-03-20T18:12:09.837Z,67.04
2023-03-20T18:17:13.187Z,66.66
2023-03-20T18:22:14.747Z,67.13
2023-03-20T18:27:16.691Z,67.81
2023-03-20T18:32:18.197Z,67.58
2023-03-20T18:37:22.078Z,68.27
2023-03-20T18:42:23.709Z,68.85
2023-03-20T18:47:25.382Z,69.22
2023-03-20T18:52:27.115Z,69.94
2023-03-20T18:57:28.624Z,69.73
2023-03-20T19:02:30.152Z,70.37
2023-03-20T19:07:31.670Z,71.75
2023-03-20T19:12:33.230Z,71.21
2023-03-20T19:17:34.766Z,72.53
2023-03-20T19:22:36.306Z,72.34
2023-03-20T19:27:37.919Z,72.03
2023-03-20T19:32:42.629Z,72.91
2023-03-20T19:37:44.191Z,72.98
2023-03-20T19:43:01.014Z,73.06
2023-03-20T19:48:12.341Z,73.52
2023-03-20T19:53:16.611Z,74.39
2023-03-20T19:58:18.135Z,74.38
2023-03-20T20:03:22.731Z,74.83
2023-03-20T20:08:41.352Z,75.25
2023-03-20T20:14:07.170Z,74.92
2023-03-20T20:19:08.267Z,75.77
2023-03-20T20:24:10.447Z,76.34
2023-03-20T20:29:11.980Z,76.24
2023-03-20T20:39:35.081Z,76.72
2023-03-20T20:44:36.921Z,77.31
2023-03-20T20:49:38.649Z,77.68
2023-03-20T20:54:43.634Z,77.98
2023-03-20T20:59:45.165Z,78.61
2023-03-20T21:04:46.708Z,79.46
2023-03-20T21:09:48.268Z,79.49
2023-03-20T21:14:50.887Z,80.36
2023-03-20T21:19:53.453Z,81.09
2023-03-20T21:25:11.031Z,81.17
2023-03-20T21:30:15.494Z,81.43
2023-03-20T21:35:17.147Z,81.74
2023-03-20T21:40:18.742Z,81.33
2023-03-20T21:46:46.694Z,81.87
2023-03-20T21:51:04.142Z,82.33
2023-03-20T22:07:28.599Z,82.81
2023-03-20T22:18:02.951Z,83.69
2023-03-20T22:28:56.681Z,85.38
2023-03-20T22:34:30.665Z,84.75
2023-03-20T22:39:34.039Z,85.47
2023-03-20T22:45:19.656Z,85.90
2023-03-20T22:49:39.860Z,85.77
2023-03-20T22:54:41.455Z,86.58
2023-03-20T22:59:42.985Z,86.26
2023-03-20T23:04:44.620Z,87.34
2023-03-20T23:09:47.753Z,87.65
2023-03-20T23:14:49.421Z,87.55
2023-03-20T23:19:59.242Z,87.36
2023-03-20T23:25:18.240Z,87.87
2023-03-20T23:30:30.979Z,88.32
2023-03-20T23:35:36.003Z,87.88
2023-03-20T23:40:38.067Z,87.71
2023-03-20T23:45:40.100Z,87.78
2023-03-20T23:50:52.203Z,87.99
2023-03-20T23:55:56.434Z,88.30
